Mons, Belgium
Current Conditions -  °F | °C
As of 12:25 PM on Tuesday 21 Oct 2014 (Local Time) from EBCV Reporting Station
Broken Clouds Broken Clouds  
Wind Chill: 57°   Ceiling: 2100
Heat Index: 57°   Visibility: 6mi
Dew Point: 52°   Wind: 22mph
Humidity: 82%   Direction: 220°SW
Pressure: 29.65"   Gusts: NA
Location:  50.45°N, 3.97°E
Report Text: EBCV 211025Z AUTO 22019KT 9999 FEW014/// BKN021/// BKN025/// 14/11 Q1004 WHT
Loading
Personal Weather Stations






























Interactive Weather Map
Tropical Storm Tracking
New forecast layout! Learn more

10-Day Weather Forecast

Advertisements
Track Severe Weather on mobile